sensor_id;sensor_type;location;lat;lon;timestamp;P1;durP1;ratioP1;P2;durP2;ratioP2
15110;SDS011;7656;51.954;7.998;2023-02-03T00:01:56;16.83;;;10.13;;
15110;SDS011;7656;51.954;7.998;2023-02-03T00:06:17;15.63;;;10.13;;
15110;SDS011;7656;51.954;7.998;2023-02-03T00:10:38;14.83;;;10.50;;
15110;SDS011;7656;51.954;7.998;2023-02-03T00:15:00;16.93;;;10.27;;
15110;SDS011;7656;51.954;7.998;2023-02-03T00:19:21;14.30;;;9.37;;
15110;SDS011;7656;51.954;7.998;2023-02-03T00:23:42;14.33;;;9.60;;
15110;SDS011;7656;51.954;7.998;2023-02-03T00:28:03;14.37;;;9.77;;
15110;SDS011;7656;51.954;7.998;2023-02-03T00:32:24;13.37;;;9.57;;
15110;SDS011;7656;51.954;7.998;2023-02-03T00:36:46;16.47;;;10.40;;
15110;SDS011;7656;51.954;7.998;2023-02-03T00:41:07;12.03;;;10.13;;
15110;SDS011;7656;51.954;7.998;2023-02-03T00:45:28;15.60;;;10.67;;
15110;SDS011;7656;51.954;7.998;2023-02-03T00:49:50;15.53;;;10.50;;
15110;SDS011;7656;51.954;7.998;2023-02-03T00:54:11;15.90;;;10.20;;
15110;SDS011;7656;51.954;7.998;2023-02-03T00:58:33;16.13;;;10.17;;
15110;SDS011;7656;51.954;7.998;2023-02-03T01:02:54;16.40;;;9.67;;
15110;SDS011;7656;51.954;7.998;2023-02-03T01:07:15;12.63;;;9.87;;
15110;SDS011;7656;51.954;7.998;2023-02-03T01:11:36;15.10;;;9.70;;
15110;SDS011;7656;51.954;7.998;2023-02-03T01:15:57;15.80;;;9.67;;
15110;SDS011;7656;51.954;7.998;2023-02-03T01:20:19;17.67;;;10.30;;
15110;SDS011;7656;51.954;7.998;2023-02-03T01:24:41;15.53;;;10.57;;
15110;SDS011;7656;51.954;7.998;2023-02-03T01:29:02;13.47;;;9.80;;
15110;SDS011;7656;51.954;7.998;2023-02-03T01:33:23;15.17;;;9.47;;
15110;SDS011;7656;51.954;7.998;2023-02-03T01:37:44;13.93;;;9.43;;
15110;SDS011;7656;51.954;7.998;2023-02-03T01:42:07;15.23;;;8.90;;
15110;SDS011;7656;51.954;7.998;2023-02-03T01:46:34;11.87;;;8.53;;
15110;SDS011;7656;51.954;7.998;2023-02-03T01:51:06;14.83;;;8.70;;
15110;SDS011;7656;51.954;7.998;2023-02-03T01:55:30;13.80;;;8.43;;
15110;SDS011;7656;51.954;7.998;2023-02-03T02:00:04;12.40;;;8.30;;
15110;SDS011;7656;51.954;7.998;2023-02-03T02:04:39;10.77;;;7.43;;
15110;SDS011;7656;51.954;7.998;2023-02-03T02:09:29;14.63;;;7.50;;
15110;SDS011;7656;51.954;7.998;2023-02-03T02:13:50;18.00;;;8.50;;
15110;SDS011;7656;51.954;7.998;2023-02-03T02:33:03;13.60;;;8.13;;
15110;SDS011;7656;51.954;7.998;2023-02-03T02:37:58;12.60;;;7.63;;
15110;SDS011;7656;51.954;7.998;2023-02-03T02:42:37;11.43;;;7.10;;
15110;SDS011;7656;51.954;7.998;2023-02-03T02:47:10;11.53;;;6.93;;
15110;SDS011;7656;51.954;7.998;2023-02-03T02:51:41;11.07;;;7.00;;
15110;SDS011;7656;51.954;7.998;2023-02-03T02:56:06;9.60;;;6.30;;
15110;SDS011;7656;51.954;7.998;2023-02-03T03:00:29;11.97;;;6.70;;
15110;SDS011;7656;51.954;7.998;2023-02-03T03:04:51;10.77;;;7.00;;
15110;SDS011;7656;51.954;7.998;2023-02-03T03:09:15;9.97;;;6.47;;
15110;SDS011;7656;51.954;7.998;2023-02-03T03:14:14;13.23;;;6.67;;
15110;SDS011;7656;51.954;7.998;2023-02-03T03:18:40;9.10;;;5.93;;
15110;SDS011;7656;51.954;7.998;2023-02-03T03:23:16;13.67;;;6.33;;
15110;SDS011;7656;51.954;7.998;2023-02-03T03:27:50;9.73;;;6.00;;
15110;SDS011;7656;51.954;7.998;2023-02-03T03:32:18;13.77;;;6.17;;
15110;SDS011;7656;51.954;7.998;2023-02-03T03:36:47;10.40;;;6.70;;
15110;SDS011;7656;51.954;7.998;2023-02-03T03:41:25;8.53;;;5.30;;
15110;SDS011;7656;51.954;7.998;2023-02-03T03:45:59;7.97;;;5.77;;
15110;SDS011;7656;51.954;7.998;2023-02-03T03:50:30;12.30;;;5.73;;
15110;SDS011;7656;51.954;7.998;2023-02-03T03:54:56;9.77;;;5.00;;
15110;SDS011;7656;51.954;7.998;2023-02-03T03:59:20;9.77;;;5.63;;
15110;SDS011;7656;51.954;7.998;2023-02-03T04:03:44;11.17;;;5.00;;
15110;SDS011;7656;51.954;7.998;2023-02-03T04:08:09;7.50;;;5.33;;
15110;SDS011;7656;51.954;7.998;2023-02-03T04:12:30;5.93;;;4.47;;
15110;SDS011;7656;51.954;7.998;2023-02-03T04:16:51;12.77;;;4.77;;
15110;SDS011;7656;51.954;7.998;2023-02-03T04:21:13;7.97;;;4.97;;
15110;SDS011;7656;51.954;7.998;2023-02-03T04:25:34;6.73;;;4.23;;
15110;SDS011;7656;51.954;7.998;2023-02-03T04:29:55;8.47;;;4.67;;
15110;SDS011;7656;51.954;7.998;2023-02-03T04:34:16;6.93;;;4.60;;
15110;SDS011;7656;51.954;7.998;2023-02-03T04:38:37;7.73;;;4.50;;
15110;SDS011;7656;51.954;7.998;2023-02-03T04:42:58;7.87;;;4.07;;
15110;SDS011;7656;51.954;7.998;2023-02-03T04:47:28;9.93;;;4.47;;
15110;SDS011;7656;51.954;7.998;2023-02-03T04:51:49;8.10;;;4.23;;
15110;SDS011;7656;51.954;7.998;2023-02-03T04:56:10;5.90;;;3.80;;
15110;SDS011;7656;51.954;7.998;2023-02-03T05:00:31;7.90;;;3.67;;
15110;SDS011;7656;51.954;7.998;2023-02-03T05:04:52;11.73;;;4.17;;
15110;SDS011;7656;51.954;7.998;2023-02-03T05:09:14;7.40;;;4.20;;
15110;SDS011;7656;51.954;7.998;2023-02-03T05:13:35;9.07;;;3.90;;
15110;SDS011;7656;51.954;7.998;2023-02-03T05:17:56;7.63;;;4.10;;
15110;SDS011;7656;51.954;7.998;2023-02-03T05:22:17;8.73;;;4.13;;
15110;SDS011;7656;51.954;7.998;2023-02-03T05:26:38;9.13;;;4.33;;
15110;SDS011;7656;51.954;7.998;2023-02-03T05:31:00;9.13;;;3.03;;
15110;SDS011;7656;51.954;7.998;2023-02-03T05:35:22;6.33;;;4.10;;
15110;SDS011;7656;51.954;7.998;2023-02-03T05:39:43;8.10;;;4.03;;
15110;SDS011;7656;51.954;7.998;2023-02-03T05:44:04;5.13;;;3.60;;
15110;SDS011;7656;51.954;7.998;2023-02-03T05:48:25;8.10;;;3.03;;
15110;SDS011;7656;51.954;7.998;2023-02-03T05:52:46;6.70;;;4.10;;
15110;SDS011;7656;51.954;7.998;2023-02-03T05:57:07;7.03;;;3.60;;
15110;SDS011;7656;51.954;7.998;2023-02-03T06:01:28;6.23;;;3.97;;
15110;SDS011;7656;51.954;7.998;2023-02-03T06:05:49;7.33;;;3.30;;
15110;SDS011;7656;51.954;7.998;2023-02-03T06:10:10;7.93;;;3.57;;
15110;SDS011;7656;51.954;7.998;2023-02-03T06:14:31;7.53;;;3.03;;
15110;SDS011;7656;51.954;7.998;2023-02-03T06:18:52;4.73;;;3.17;;
15110;SDS011;7656;51.954;7.998;2023-02-03T06:23:15;7.00;;;2.80;;
15110;SDS011;7656;51.954;7.998;2023-02-03T06:27:38;6.97;;;3.43;;
15110;SDS011;7656;51.954;7.998;2023-02-03T06:32:00;8.90;;;3.50;;
15110;SDS011;7656;51.954;7.998;2023-02-03T06:36:21;4.03;;;2.90;;
15110;SDS011;7656;51.954;7.998;2023-02-03T06:40:45;3.87;;;3.00;;
15110;SDS011;7656;51.954;7.998;2023-02-03T06:45:07;5.47;;;2.63;;
15110;SDS011;7656;51.954;7.998;2023-02-03T06:49:29;5.73;;;3.20;;
15110;SDS011;7656;51.954;7.998;2023-02-03T06:53:50;3.87;;;2.83;;
15110;SDS011;7656;51.954;7.998;2023-02-03T06:58:11;2.60;;;2.40;;
15110;SDS011;7656;51.954;7.998;2023-02-03T07:02:32;3.50;;;2.97;;
15110;SDS011;7656;51.954;7.998;2023-02-03T07:06:53;4.87;;;2.40;;
15110;SDS011;7656;51.954;7.998;2023-02-03T07:11:14;4.20;;;3.00;;
15110;SDS011;7656;51.954;7.998;2023-02-03T07:15:35;6.80;;;3.37;;
15110;SDS011;7656;51.954;7.998;2023-02-03T07:19:56;5.80;;;3.30;;
15110;SDS011;7656;51.954;7.998;2023-02-03T07:24:17;4.60;;;2.70;;
15110;SDS011;7656;51.954;7.998;2023-02-03T07:28:38;7.20;;;3.10;;
15110;SDS011;7656;51.954;7.998;2023-02-03T07:33:00;7.10;;;3.00;;
15110;SDS011;7656;51.954;7.998;2023-02-03T07:37:21;6.67;;;3.73;;
15110;SDS011;7656;51.954;7.998;2023-02-03T07:41:42;3.73;;;2.63;;
15110;SDS011;7656;51.954;7.998;2023-02-03T07:46:03;6.10;;;3.60;;
15110;SDS011;7656;51.954;7.998;2023-02-03T07:50:24;5.80;;;3.37;;
15110;SDS011;7656;51.954;7.998;2023-02-03T07:54:45;9.27;;;3.67;;
15110;SDS011;7656;51.954;7.998;2023-02-03T07:59:06;7.73;;;3.50;;
15110;SDS011;7656;51.954;7.998;2023-02-03T08:03:27;6.53;;;3.70;;
15110;SDS011;7656;51.954;7.998;2023-02-03T08:07:49;6.03;;;3.53;;
15110;SDS011;7656;51.954;7.998;2023-02-03T08:12:10;5.63;;;3.33;;
15110;SDS011;7656;51.954;7.998;2023-02-03T08:16:31;5.10;;;3.80;;
15110;SDS011;7656;51.954;7.998;2023-02-03T08:20:52;6.53;;;4.53;;
15110;SDS011;7656;51.954;7.998;2023-02-03T08:25:13;5.47;;;3.60;;
15110;SDS011;7656;51.954;7.998;2023-02-03T08:29:34;7.63;;;4.30;;
15110;SDS011;7656;51.954;7.998;2023-02-03T08:33:55;6.77;;;4.03;;
15110;SDS011;7656;51.954;7.998;2023-02-03T08:38:17;5.20;;;3.60;;
15110;SDS011;7656;51.954;7.998;2023-02-03T08:42:38;5.27;;;3.90;;
15110;SDS011;7656;51.954;7.998;2023-02-03T08:46:59;6.30;;;3.87;;
15110;SDS011;7656;51.954;7.998;2023-02-03T08:51:21;9.93;;;4.27;;
15110;SDS011;7656;51.954;7.998;2023-02-03T08:55:42;5.57;;;3.67;;
15110;SDS011;7656;51.954;7.998;2023-02-03T09:00:03;11.07;;;4.43;;
15110;SDS011;7656;51.954;7.998;2023-02-03T09:04:25;7.10;;;4.20;;
15110;SDS011;7656;51.954;7.998;2023-02-03T09:08:46;9.27;;;3.63;;
15110;SDS011;7656;51.954;7.998;2023-02-03T09:13:08;7.63;;;3.93;;
15110;SDS011;7656;51.954;7.998;2023-02-03T09:17:29;8.77;;;4.17;;
15110;SDS011;7656;51.954;7.998;2023-02-03T09:21:50;5.40;;;3.30;;
15110;SDS011;7656;51.954;7.998;2023-02-03T09:26:12;10.43;;;4.27;;
15110;SDS011;7656;51.954;7.998;2023-02-03T09:30:34;8.43;;;3.60;;
15110;SDS011;7656;51.954;7.998;2023-02-03T09:34:55;6.43;;;4.00;;
15110;SDS011;7656;51.954;7.998;2023-02-03T09:39:16;5.33;;;3.83;;
15110;SDS011;7656;51.954;7.998;2023-02-03T09:43:42;10.10;;;4.37;;
15110;SDS011;7656;51.954;7.998;2023-02-03T09:48:35;6.10;;;3.43;;
15110;SDS011;7656;51.954;7.998;2023-02-03T09:53:03;7.07;;;3.93;;
15110;SDS011;7656;51.954;7.998;2023-02-03T09:58:33;10.43;;;4.37;;
15110;SDS011;7656;51.954;7.998;2023-02-03T10:21:51;10.40;;;4.03;;
15110;SDS011;7656;51.954;7.998;2023-02-03T10:26:21;4.83;;;3.27;;
15110;SDS011;7656;51.954;7.998;2023-02-03T10:30:56;7.93;;;3.47;;
15110;SDS011;7656;51.954;7.998;2023-02-03T10:35:21;5.47;;;3.60;;
15110;SDS011;7656;51.954;7.998;2023-02-03T10:40:16;6.77;;;3.37;;
15110;SDS011;7656;51.954;7.998;2023-02-03T10:44:39;4.63;;;2.80;;
15110;SDS011;7656;51.954;7.998;2023-02-03T10:49:08;5.27;;;3.03;;
15110;SDS011;7656;51.954;7.998;2023-02-03T10:53:35;4.17;;;2.50;;
15110;SDS011;7656;51.954;7.998;2023-02-03T10:57:56;3.67;;;2.50;;
15110;SDS011;7656;51.954;7.998;2023-02-03T11:02:26;4.43;;;2.50;;
15110;SDS011;7656;51.954;7.998;2023-02-03T11:06:52;4.83;;;2.50;;
15110;SDS011;7656;51.954;7.998;2023-02-03T11:11:26;4.63;;;2.30;;
15110;SDS011;7656;51.954;7.998;2023-02-03T11:15:51;9.77;;;2.93;;
15110;SDS011;7656;51.954;7.998;2023-02-03T11:20:17;4.93;;;2.80;;
15110;SDS011;7656;51.954;7.998;2023-02-03T11:24:38;6.10;;;3.00;;
15110;SDS011;7656;51.954;7.998;2023-02-03T11:29:01;7.57;;;2.67;;
15110;SDS011;7656;51.954;7.998;2023-02-03T11:33:26;7.10;;;3.10;;
15110;SDS011;7656;51.954;7.998;2023-02-03T11:37:49;6.50;;;2.50;;
15110;SDS011;7656;51.954;7.998;2023-02-03T11:42:22;5.93;;;2.70;;
15110;SDS011;7656;51.954;7.998;2023-02-03T11:46:45;6.20;;;2.73;;
15110;SDS011;7656;51.954;7.998;2023-02-03T12:01:13;6.20;;;2.73;;
15110;SDS011;7656;51.954;7.998;2023-02-03T12:06:04;3.80;;;2.17;;
15110;SDS011;7656;51.954;7.998;2023-02-03T12:10:56;4.90;;;1.77;;
15110;SDS011;7656;51.954;7.998;2023-02-03T12:24:58;5.33;;;2.37;;
15110;SDS011;7656;51.954;7.998;2023-02-03T12:29:34;7.93;;;2.37;;
15110;SDS011;7656;51.954;7.998;2023-02-03T12:34:14;9.97;;;3.90;;
15110;SDS011;7656;51.954;7.998;2023-02-03T12:38:57;5.27;;;1.97;;
15110;SDS011;7656;51.954;7.998;2023-02-03T12:43:33;10.00;;;2.73;;
15110;SDS011;7656;51.954;7.998;2023-02-03T12:48:11;8.10;;;2.20;;
15110;SDS011;7656;51.954;7.998;2023-02-03T13:02:55;13.37;;;2.80;;
15110;SDS011;7656;51.954;7.998;2023-02-03T13:07:32;13.87;;;3.43;;
15110;SDS011;7656;51.954;7.998;2023-02-03T13:12:12;8.33;;;2.27;;
15110;SDS011;7656;51.954;7.998;2023-02-03T13:16:44;8.70;;;2.80;;
15110;SDS011;7656;51.954;7.998;2023-02-03T13:21:32;10.80;;;3.40;;
15110;SDS011;7656;51.954;7.998;2023-02-03T13:36:14;18.03;;;2.70;;
15110;SDS011;7656;51.954;7.998;2023-02-03T13:45:42;14.77;;;3.30;;
15110;SDS011;7656;51.954;7.998;2023-02-03T13:50:15;18.43;;;3.77;;
15110;SDS011;7656;51.954;7.998;2023-02-03T13:54:48;11.17;;;3.23;;
15110;SDS011;7656;51.954;7.998;2023-02-03T14:07:54;8.63;;;3.60;;
15110;SDS011;7656;51.954;7.998;2023-02-03T14:16:49;9.53;;;2.10;;
15110;SDS011;7656;51.954;7.998;2023-02-03T14:21:18;13.30;;;2.80;;
15110;SDS011;7656;51.954;7.998;2023-02-03T14:26:04;13.10;;;2.67;;
15110;SDS011;7656;51.954;7.998;2023-02-03T14:30:25;10.10;;;2.60;;
15110;SDS011;7656;51.954;7.998;2023-02-03T14:34:46;8.33;;;2.87;;
15110;SDS011;7656;51.954;7.998;2023-02-03T14:43:43;13.40;;;3.00;;
15110;SDS011;7656;51.954;7.998;2023-02-03T14:57:58;8.87;;;2.80;;
15110;SDS011;7656;51.954;7.998;2023-02-03T15:02:26;8.87;;;2.73;;
15110;SDS011;7656;51.954;7.998;2023-02-03T15:06:51;11.50;;;3.33;;
15110;SDS011;7656;51.954;7.998;2023-02-03T15:11:23;12.47;;;2.37;;
15110;SDS011;7656;51.954;7.998;2023-02-03T15:15:46;13.30;;;4.13;;
15110;SDS011;7656;51.954;7.998;2023-02-03T15:20:22;10.00;;;2.97;;
15110;SDS011;7656;51.954;7.998;2023-02-03T15:25:01;13.93;;;2.90;;
15110;SDS011;7656;51.954;7.998;2023-02-03T15:29:36;8.87;;;2.50;;
15110;SDS011;7656;51.954;7.998;2023-02-03T15:33:57;17.50;;;3.27;;
15110;SDS011;7656;51.954;7.998;2023-02-03T15:38:35;11.60;;;2.13;;
15110;SDS011;7656;51.954;7.998;2023-02-03T15:43:03;14.57;;;2.93;;
15110;SDS011;7656;51.954;7.998;2023-02-03T15:47:45;14.60;;;2.93;;
15110;SDS011;7656;51.954;7.998;2023-02-03T15:52:13;9.40;;;2.50;;
15110;SDS011;7656;51.954;7.998;2023-02-03T15:56:41;10.67;;;2.20;;
15110;SDS011;7656;51.954;7.998;2023-02-03T16:01:14;15.67;;;2.83;;
15110;SDS011;7656;51.954;7.998;2023-02-03T16:05:42;10.00;;;2.93;;
15110;SDS011;7656;51.954;7.998;2023-02-03T16:10:21;9.37;;;2.73;;
15110;SDS011;7656;51.954;7.998;2023-02-03T16:14:54;11.63;;;2.53;;
15110;SDS011;7656;51.954;7.998;2023-02-03T16:19:19;9.33;;;3.20;;
15110;SDS011;7656;51.954;7.998;2023-02-03T16:23:47;16.57;;;2.53;;
15110;SDS011;7656;51.954;7.998;2023-02-03T16:37:46;13.00;;;2.57;;
15110;SDS011;7656;51.954;7.998;2023-02-03T16:42:28;19.43;;;3.63;;
15110;SDS011;7656;51.954;7.998;2023-02-03T16:47:21;13.53;;;3.10;;
15110;SDS011;7656;51.954;7.998;2023-02-03T16:52:07;10.53;;;3.37;;
15110;SDS011;7656;51.954;7.998;2023-02-03T16:56:28;16.00;;;5.07;;
15110;SDS011;7656;51.954;7.998;2023-02-03T17:00:50;19.27;;;4.77;;
15110;SDS011;7656;51.954;7.998;2023-02-03T17:05:12;14.40;;;3.20;;
15110;SDS011;7656;51.954;7.998;2023-02-03T17:09:34;9.30;;;3.03;;
15110;SDS011;7656;51.954;7.998;2023-02-03T17:13:55;13.00;;;2.87;;
15110;SDS011;7656;51.954;7.998;2023-02-03T17:18:17;17.03;;;3.77;;
15110;SDS011;7656;51.954;7.998;2023-02-03T17:22:38;14.57;;;2.90;;
15110;SDS011;7656;51.954;7.998;2023-02-03T17:26:59;10.53;;;3.17;;
15110;SDS011;7656;51.954;7.998;2023-02-03T17:31:20;9.50;;;2.90;;
15110;SDS011;7656;51.954;7.998;2023-02-03T17:35:42;11.43;;;2.63;;
15110;SDS011;7656;51.954;7.998;2023-02-03T17:40:04;12.47;;;2.70;;
15110;SDS011;7656;51.954;7.998;2023-02-03T17:44:26;18.67;;;3.70;;
15110;SDS011;7656;51.954;7.998;2023-02-03T17:48:48;15.30;;;3.43;;
15110;SDS011;7656;51.954;7.998;2023-02-03T17:53:09;14.70;;;2.87;;
15110;SDS011;7656;51.954;7.998;2023-02-03T17:57:30;16.07;;;3.57;;
15110;SDS011;7656;51.954;7.998;2023-02-03T18:01:52;17.27;;;3.13;;
15110;SDS011;7656;51.954;7.998;2023-02-03T18:06:14;13.77;;;3.27;;
15110;SDS011;7656;51.954;7.998;2023-02-03T18:10:37;13.90;;;2.63;;
15110;SDS011;7656;51.954;7.998;2023-02-03T18:14:58;13.07;;;3.57;;
15110;SDS011;7656;51.954;7.998;2023-02-03T18:19:19;13.30;;;3.67;;
15110;SDS011;7656;51.954;7.998;2023-02-03T18:23:40;9.87;;;2.33;;
15110;SDS011;7656;51.954;7.998;2023-02-03T18:28:02;12.43;;;2.63;;
15110;SDS011;7656;51.954;7.998;2023-02-03T18:32:23;13.33;;;3.13;;
15110;SDS011;7656;51.954;7.998;2023-02-03T18:36:44;11.63;;;3.20;;
15110;SDS011;7656;51.954;7.998;2023-02-03T18:41:06;13.23;;;2.50;;
15110;SDS011;7656;51.954;7.998;2023-02-03T18:45:31;12.57;;;2.93;;
15110;SDS011;7656;51.954;7.998;2023-02-03T18:49:54;10.63;;;3.70;;
15110;SDS011;7656;51.954;7.998;2023-02-03T18:54:15;10.87;;;3.33;;
15110;SDS011;7656;51.954;7.998;2023-02-03T18:58:36;13.80;;;3.00;;
15110;SDS011;7656;51.954;7.998;2023-02-03T19:02:57;12.20;;;3.00;;
15110;SDS011;7656;51.954;7.998;2023-02-03T19:07:18;14.03;;;3.10;;
15110;SDS011;7656;51.954;7.998;2023-02-03T19:11:39;10.37;;;2.43;;
15110;SDS011;7656;51.954;7.998;2023-02-03T19:16:00;13.67;;;2.80;;
15110;SDS011;7656;51.954;7.998;2023-02-03T19:20:22;15.00;;;4.10;;
15110;SDS011;7656;51.954;7.998;2023-02-03T19:24:43;9.43;;;2.67;;
15110;SDS011;7656;51.954;7.998;2023-02-03T19:29:04;19.13;;;3.77;;
15110;SDS011;7656;51.954;7.998;2023-02-03T19:33:25;20.37;;;3.53;;
15110;SDS011;7656;51.954;7.998;2023-02-03T19:37:46;13.90;;;3.70;;
15110;SDS011;7656;51.954;7.998;2023-02-03T19:42:07;23.03;;;4.90;;
15110;SDS011;7656;51.954;7.998;2023-02-03T19:46:28;12.33;;;3.53;;
15110;SDS011;7656;51.954;7.998;2023-02-03T19:50:52;12.53;;;2.83;;
15110;SDS011;7656;51.954;7.998;2023-02-03T19:55:13;18.57;;;2.60;;
15110;SDS011;7656;51.954;7.998;2023-02-03T19:59:35;14.87;;;3.90;;
15110;SDS011;7656;51.954;7.998;2023-02-03T20:03:56;15.07;;;2.97;;
15110;SDS011;7656;51.954;7.998;2023-02-03T20:08:17;10.53;;;2.83;;
15110;SDS011;7656;51.954;7.998;2023-02-03T20:12:38;15.00;;;3.97;;
15110;SDS011;7656;51.954;7.998;2023-02-03T20:17:00;14.67;;;3.40;;
15110;SDS011;7656;51.954;7.998;2023-02-03T20:21:22;12.50;;;3.60;;
15110;SDS011;7656;51.954;7.998;2023-02-03T20:25:46;12.20;;;3.93;;
15110;SDS011;7656;51.954;7.998;2023-02-03T20:30:09;15.50;;;3.40;;
15110;SDS011;7656;51.954;7.998;2023-02-03T20:34:32;9.93;;;3.60;;
15110;SDS011;7656;51.954;7.998;2023-02-03T20:38:53;11.33;;;3.33;;
15110;SDS011;7656;51.954;7.998;2023-02-03T20:43:18;19.23;;;3.37;;
15110;SDS011;7656;51.954;7.998;2023-02-03T20:47:44;15.30;;;4.47;;
15110;SDS011;7656;51.954;7.998;2023-02-03T20:52:09;16.97;;;4.30;;
15110;SDS011;7656;51.954;7.998;2023-02-03T20:56:33;17.57;;;3.20;;
15110;SDS011;7656;51.954;7.998;2023-02-03T21:00:55;15.30;;;3.80;;
15110;SDS011;7656;51.954;7.998;2023-02-03T21:05:21;29.37;;;4.00;;
15110;SDS011;7656;51.954;7.998;2023-02-03T21:09:45;15.77;;;3.43;;
15110;SDS011;7656;51.954;7.998;2023-02-03T21:14:16;10.83;;;3.97;;
15110;SDS011;7656;51.954;7.998;2023-02-03T21:18:50;20.87;;;4.53;;
15110;SDS011;7656;51.954;7.998;2023-02-03T21:23:19;9.87;;;3.30;;
15110;SDS011;7656;51.954;7.998;2023-02-03T21:27:47;21.83;;;4.67;;
15110;SDS011;7656;51.954;7.998;2023-02-03T21:32:12;13.63;;;4.13;;
15110;SDS011;7656;51.954;7.998;2023-02-03T21:36:34;15.67;;;3.37;;
15110;SDS011;7656;51.954;7.998;2023-02-03T21:40:57;24.87;;;4.13;;
15110;SDS011;7656;51.954;7.998;2023-02-03T21:45:21;15.53;;;3.63;;
15110;SDS011;7656;51.954;7.998;2023-02-03T21:49:47;16.53;;;4.03;;
15110;SDS011;7656;51.954;7.998;2023-02-03T21:58:53;19.23;;;3.70;;
15110;SDS011;7656;51.954;7.998;2023-02-03T22:07:46;16.67;;;3.90;;
15110;SDS011;7656;51.954;7.998;2023-02-03T22:12:07;19.93;;;4.67;;
15110;SDS011;7656;51.954;7.998;2023-02-03T22:16:28;14.63;;;3.27;;
15110;SDS011;7656;51.954;7.998;2023-02-03T22:20:50;22.43;;;4.20;;
15110;SDS011;7656;51.954;7.998;2023-02-03T22:25:12;17.07;;;3.80;;
15110;SDS011;7656;51.954;7.998;2023-02-03T22:29:33;16.77;;;4.07;;
15110;SDS011;7656;51.954;7.998;2023-02-03T22:33:54;16.43;;;3.00;;
15110;SDS011;7656;51.954;7.998;2023-02-03T22:38:16;19.87;;;4.37;;
15110;SDS011;7656;51.954;7.998;2023-02-03T22:42:37;18.33;;;3.67;;
15110;SDS011;7656;51.954;7.998;2023-02-03T22:46:58;11.70;;;3.33;;
15110;SDS011;7656;51.954;7.998;2023-02-03T22:51:19;16.40;;;3.83;;
15110;SDS011;7656;51.954;7.998;2023-02-03T22:55:40;13.87;;;4.27;;
15110;SDS011;7656;51.954;7.998;2023-02-03T23:00:04;9.70;;;2.60;;
15110;SDS011;7656;51.954;7.998;2023-02-03T23:04:30;16.97;;;3.50;;
15110;SDS011;7656;51.954;7.998;2023-02-03T23:08:51;18.53;;;4.47;;
15110;SDS011;7656;51.954;7.998;2023-02-03T23:13:12;20.13;;;3.40;;
15110;SDS011;7656;51.954;7.998;2023-02-03T23:17:33;13.70;;;3.93;;
15110;SDS011;7656;51.954;7.998;2023-02-03T23:21:54;12.87;;;2.83;;
15110;SDS011;7656;51.954;7.998;2023-02-03T23:26:15;17.47;;;3.60;;
15110;SDS011;7656;51.954;7.998;2023-02-03T23:30:36;19.40;;;4.33;;
15110;SDS011;7656;51.954;7.998;2023-02-03T23:34:57;13.77;;;3.47;;
15110;SDS011;7656;51.954;7.998;2023-02-03T23:39:38;16.17;;;2.93;;
15110;SDS011;7656;51.954;7.998;2023-02-03T23:43:59;15.30;;;3.23;;
15110;SDS011;7656;51.954;7.998;2023-02-03T23:48:20;12.73;;;3.33;;
15110;SDS011;7656;51.954;7.998;2023-02-03T23:52:41;15.50;;;3.23;;
15110;SDS011;7656;51.954;7.998;2023-02-03T23:57:02;21.50;;;3.57;;
